Time,TemperatureF,DewpointF,PressureIn,WindDirection,WindDirectionDegrees,WindSpeedMPH,WindSpeedGustMPH,Humidity,HourlyPrecipIn,Conditions,Clouds,dailyrainin,SoftwareType,DateUTC
2013-08-18 00:01:00,65.4,59.7,30.30,North,10,0.0,236.6,82,0.00,,,0.00,VWS V14.01,2013-08-18 04:01:00,
2013-08-18 00:02:00,65.4,59.7,30.30,North,10,0.0,236.6,82,0.00,,,0.00,VWS V14.01,2013-08-18 04:02:00,
2013-08-18 00:03:00,65.3,59.6,30.30,North,10,0.0,236.6,82,0.00,,,0.00,VWS V14.01,2013-08-18 04:03:00,
2013-08-18 00:04:00,65.3,59.6,30.30,North,10,0.0,236.6,82,0.00,,,0.00,VWS V14.01,2013-08-18 04:04:00,
2013-08-18 00:05:00,65.4,59.7,30.30,North,10,0.0,236.6,82,0.00,,,0.00,VWS V14.01,2013-08-18 04:05:00,
2013-08-18 00:06:00,64.8,59.8,30.29,North,10,0.0,236.6,84,0.00,,,0.00,VWS V14.01,2013-08-18 04:06:00,
2013-08-18 00:07:00,64.8,59.8,30.29,North,10,0.0,236.6,84,0.00,,,0.00,VWS V14.01,2013-08-18 04:07:00,
2013-08-18 00:08:00,64.7,59.7,30.29,North,10,0.0,236.6,84,0.00,,,0.00,VWS V14.01,2013-08-18 04:08:00,
2013-08-18 00:09:00,64.7,59.8,30.29,North,10,0.0,236.6,84,0.00,,,0.00,VWS V14.01,2013-08-18 04:09:00,
2013-08-18 00:10:00,65.3,59.7,30.30,North,10,0.0,236.6,82,0.00,,,0.00,VWS V14.01,2013-08-18 04:10:00,
2013-08-18 00:11:00,64.6,59.7,30.29,North,10,0.0,236.6,84,0.00,,,0.00,VWS V14.01,2013-08-18 04:11:00,
2013-08-18 00:12:00,64.5,59.7,30.29,North,10,0.0,236.6,84,0.00,,,0.00,VWS V14.01,2013-08-18 04:12:00,
2013-08-18 00:13:00,64.4,59.6,30.29,North,10,0.0,236.6,84,0.00,,,0.00,VWS V14.01,2013-08-18 04:13:00,
2013-08-18 00:14:00,64.4,59.6,30.29,North,10,0.0,236.6,84,0.00,,,0.00,VWS V14.01,2013-08-18 04:14:00,
2013-08-18 00:15:00,64.4,59.6,30.29,North,10,0.0,236.6,84,0.00,,,0.00,VWS V14.01,2013-08-18 04:15:00,
2013-08-18 00:16:00,65.2,59.5,30.30,North,10,0.0,236.6,82,0.00,,,0.00,VWS V14.01,2013-08-18 04:16:00,
2013-08-18 00:17:00,64.4,59.6,30.29,North,10,0.0,236.6,84,0.00,,,0.00,VWS V14.01,2013-08-18 04:17:00,
2013-08-18 00:18:00,64.4,59.6,30.29,North,10,0.0,236.6,84,0.00,,,0.00,VWS V14.01,2013-08-18 04:18:00,
2013-08-18 00:19:00,64.4,59.6,30.29,North,10,0.0,236.6,84,0.00,,,0.00,VWS V14.01,2013-08-18 04:19:00,
2013-08-18 00:20:00,64.4,59.7,30.29,North,10,0.0,236.6,85,0.00,,,0.00,VWS V14.01,2013-08-18 04:20:00,
2013-08-18 00:21:00,65.3,59.7,30.30,North,10,0.0,236.6,82,0.00,,,0.00,VWS V14.01,2013-08-18 04:21:00,
2013-08-18 00:22:00,64.4,59.6,30.29,North,10,0.0,236.6,84,0.00,,,0.00,VWS V14.01,2013-08-18 04:22:00,
2013-08-18 00:23:00,64.4,59.7,30.29,North,10,0.0,236.6,85,0.00,,,0.00,VWS V14.01,2013-08-18 04:23:00,
2013-08-18 00:24:00,64.4,59.7,30.29,North,10,0.0,236.6,85,0.00,,,0.00,VWS V14.01,2013-08-18 04:24:00,
2013-08-18 00:25:00,64.4,59.6,30.29,North,10,0.0,236.6,84,0.00,,,0.00,VWS V14.01,2013-08-18 04:25:00,
2013-08-18 00:26:00,65.2,59.6,30.30,North,10,0.0,236.6,82,0.00,,,0.00,VWS V14.01,2013-08-18 04:26:00,
2013-08-18 00:27:00,64.4,59.7,30.29,North,10,0.0,236.6,85,0.00,,,0.00,VWS V14.01,2013-08-18 04:27:00,
2013-08-18 00:28:00,64.4,59.7,30.29,North,10,0.0,236.6,85,0.00,,,0.00,VWS V14.01,2013-08-18 04:28:00,
2013-08-18 00:29:00,64.4,59.7,30.29,North,10,0.0,236.6,85,0.00,,,0.00,VWS V14.01,2013-08-18 04:29:00,
2013-08-18 00:30:00,64.5,59.8,30.29,North,10,0.0,236.6,85,0.00,,,0.00,VWS V14.01,2013-08-18 04:30:00,
2013-08-18 00:31:00,65.1,59.4,30.31,North,10,0.0,236.6,82,0.00,,,0.00,VWS V14.01,2013-08-18 04:31:00,
2013-08-18 00:32:00,64.6,59.9,30.29,North,10,0.0,236.6,85,0.00,,,0.00,VWS V14.01,2013-08-18 04:32:00,
2013-08-18 00:33:00,64.4,59.6,30.29,North,10,0.0,236.6,84,0.00,,,0.00,VWS V14.01,2013-08-18 04:33:00,
2013-08-18 00:34:00,64.5,59.8,30.29,North,10,0.0,236.6,85,0.00,,,0.00,VWS V14.01,2013-08-18 04:34:00,
2013-08-18 00:35:00,64.5,59.9,30.29,North,10,0.0,236.6,85,0.00,,,0.00,VWS V14.01,2013-08-18 04:35:00,
2013-08-18 00:36:00,64.4,60.1,30.29,North,10,0.0,236.6,86,0.00,,,0.00,VWS V14.01,2013-08-18 04:36:00,
2013-08-18 00:37:00,65.1,59.4,30.30,North,10,0.0,236.6,82,0.00,,,0.00,VWS V14.01,2013-08-18 04:37:00,
2013-08-18 00:38:00,64.4,60.0,30.29,North,10,0.0,236.6,86,0.00,,,0.00,VWS V14.01,2013-08-18 04:38:00,
2013-08-18 00:39:00,64.3,59.9,30.29,North,10,0.0,236.6,86,0.00,,,0.00,VWS V14.01,2013-08-18 04:39:00,
2013-08-18 00:40:00,64.3,59.9,30.29,North,10,0.0,236.6,86,0.00,,,0.00,VWS V14.01,2013-08-18 04:40:00,
2013-08-18 00:41:00,64.3,59.9,30.29,North,10,0.0,236.6,86,0.00,,,0.00,VWS V14.01,2013-08-18 04:41:00,
2013-08-18 00:42:00,65.0,59.3,30.30,North,10,0.0,236.6,82,0.00,,,0.00,VWS V14.01,2013-08-18 04:42:00,
2013-08-18 00:43:00,64.2,59.8,30.29,North,10,0.0,236.6,86,0.00,,,0.00,VWS V14.01,2013-08-18 04:43:00,
2013-08-18 00:44:00,64.2,59.8,30.29,North,10,0.0,236.6,86,0.00,,,0.00,VWS V14.01,2013-08-18 04:44:00,
2013-08-18 00:45:00,64.2,59.8,30.29,North,10,0.0,236.6,86,0.00,,,0.00,VWS V14.01,2013-08-18 04:45:00,
2013-08-18 00:46:00,64.2,59.8,30.30,North,10,0.0,236.6,86,0.00,,,0.00,VWS V14.01,2013-08-18 04:46:00,
2013-08-18 00:47:00,65.1,59.4,30.30,North,10,0.0,236.6,82,0.00,,,0.00,VWS V14.01,2013-08-18 04:47:00,
2013-08-18 00:48:00,64.1,59.8,30.29,North,10,0.0,236.6,86,0.00,,,0.00,VWS V14.01,2013-08-18 04:48:00,
2013-08-18 00:49:00,64.1,59.7,30.29,North,10,0.0,236.6,86,0.00,,,0.00,VWS V14.01,2013-08-18 04:49:00,
2013-08-18 00:50:00,64.1,59.8,30.30,North,10,0.0,236.6,86,0.00,,,0.00,VWS V14.01,2013-08-18 04:50:00,
2013-08-18 00:51:00,64.1,59.7,30.30,North,10,0.0,236.6,86,0.00,,,0.00,VWS V14.01,2013-08-18 04:51:00,
2013-08-18 00:52:00,65.1,59.6,30.30,North,10,0.0,236.6,82,0.00,,,0.00,VWS V14.01,2013-08-18 04:52:00,
2013-08-18 00:53:00,64.1,59.7,30.29,North,10,0.0,236.6,86,0.00,,,0.00,VWS V14.01,2013-08-18 04:53:00,
2013-08-18 00:55:00,64.1,59.7,30.29,North,10,0.0,236.6,86,0.00,,,0.00,VWS V14.01,2013-08-18 04:55:00,
2013-08-18 00:56:00,64.1,59.7,30.29,North,10,0.0,236.6,86,0.00,,,0.00,VWS V14.01,2013-08-18 04:56:00,
2013-08-18 00:57:00,64.1,59.7,30.29,North,10,0.0,236.6,86,0.00,,,0.00,VWS V14.01,2013-08-18 04:57:00,
2013-08-18 00:58:00,64.1,59.8,30.29,North,10,0.0,236.6,86,0.00,,,0.00,VWS V14.01,2013-08-18 04:58:00,
2013-08-18 00:59:00,64.0,59.7,30.29,North,10,0.0,236.6,86,0.00,,,0.00,VWS V14.01,2013-08-18 04:59:00,
2013-08-18 01:00:00,64.1,59.8,30.29,North,10,0.0,236.6,86,0.00,,,0.00,VWS V14.01,2013-08-18 05:00:00,
2013-08-18 01:01:00,64.0,59.7,30.29,North,10,0.0,236.6,86,0.00,,,0.00,VWS V14.01,2013-08-18 05:01:00,
2013-08-18 01:02:00,64.0,59.8,30.29,North,10,0.0,236.6,86,0.00,,,0.00,VWS V14.01,2013-08-18 05:02:00,
2013-08-18 01:03:00,64.0,59.9,30.29,North,10,0.0,236.6,86,0.00,,,0.00,VWS V14.01,2013-08-18 05:03:00,
2013-08-18 01:04:00,64.0,59.9,30.29,North,10,0.0,236.6,86,0.00,,,0.00,VWS V14.01,2013-08-18 05:04:00,
2013-08-18 01:05:00,64.1,60.0,30.29,North,10,0.0,236.6,86,0.00,,,0.00,VWS V14.01,2013-08-18 05:05:00,
2013-08-18 01:06:00,64.0,59.9,30.29,North,10,0.0,236.6,87,0.00,,,0.00,VWS V14.01,2013-08-18 05:06:00,
2013-08-18 01:07:00,64.0,59.9,30.29,North,10,0.0,236.6,87,0.00,,,0.00,VWS V14.01,2013-08-18 05:07:00,
2013-08-18 01:08:00,64.0,59.9,30.29,North,10,0.0,236.6,87,0.00,,,0.00,VWS V14.01,2013-08-18 05:08:00,
2013-08-18 01:09:00,64.0,59.9,30.29,North,10,0.0,236.6,87,0.00,,,0.00,VWS V14.01,2013-08-18 05:09:00,
2013-08-18 01:10:00,64.0,59.9,30.29,North,10,0.0,236.6,87,0.00,,,0.00,VWS V14.01,2013-08-18 05:10:00,
2013-08-18 01:11:00,63.9,59.8,30.29,North,10,0.0,236.6,87,0.00,,,0.00,VWS V14.01,2013-08-18 05:11:00,
2013-08-18 01:12:00,64.0,59.9,30.29,North,10,0.0,236.6,87,0.00,,,0.00,VWS V14.01,2013-08-18 05:12:00,
2013-08-18 01:13:00,63.9,59.8,30.29,North,10,0.0,236.6,87,0.00,,,0.00,VWS V14.01,2013-08-18 05:13:00,
2013-08-18 01:14:00,63.9,59.8,30.29,North,10,0.0,236.6,87,0.00,,,0.00,VWS V14.01,2013-08-18 05:14:00,
2013-08-18 01:15:00,63.9,59.8,30.29,North,10,0.0,236.6,86,0.00,,,0.00,VWS V14.01,2013-08-18 05:15:00,
2013-08-18 01:16:00,63.9,59.8,30.28,North,10,0.0,236.6,86,0.00,,,0.00,VWS V14.01,2013-08-18 05:16:00,
2013-08-18 01:17:00,63.9,59.7,30.29,North,10,0.0,236.6,86,0.00,,,0.00,VWS V14.01,2013-08-18 05:17:00,
2013-08-18 01:18:00,63.9,59.7,30.29,North,10,0.0,236.6,86,0.00,,,0.00,VWS V14.01,2013-08-18 05:18:00,
2013-08-18 01:19:00,63.9,59.7,30.28,North,10,0.0,236.6,86,0.00,,,0.00,VWS V14.01,2013-08-18 05:19:00,
2013-08-18 01:21:00,63.9,59.7,30.29,North,10,0.0,236.6,86,0.00,,,0.00,VWS V14.01,2013-08-18 05:21:00,
2013-08-18 01:22:00,63.9,59.7,30.28,North,10,0.0,236.6,86,0.00,,,0.00,VWS V14.01,2013-08-18 05:22:00,
2013-08-18 01:23:00,63.9,59.7,30.28,North,10,0.0,236.6,86,0.00,,,0.00,VWS V14.01,2013-08-18 05:23:00,
2013-08-18 01:24:00,63.9,59.7,30.28,North,10,0.0,236.6,86,0.00,,,0.00,VWS V14.01,2013-08-18 05:24:00,
2013-08-18 01:26:00,63.9,59.7,30.28,North,10,0.0,236.6,86,0.00,,,0.00,VWS V14.01,2013-08-18 05:26:00,
2013-08-18 01:27:00,63.9,59.6,30.28,North,10,0.0,236.6,86,0.00,,,0.00,VWS V14.01,2013-08-18 05:27:00,
2013-08-18 01:28:00,63.9,59.6,30.28,North,10,0.0,236.6,86,0.00,,,0.00,VWS V14.01,2013-08-18 05:28:00,
2013-08-18 01:29:00,63.9,59.6,30.28,North,10,0.0,236.6,86,0.00,,,0.00,VWS V14.01,2013-08-18 05:29:00,
2013-08-18 01:30:00,63.9,59.6,30.28,North,10,0.0,236.6,86,0.00,,,0.00,VWS V14.01,2013-08-18 05:30:00,
2013-08-18 01:31:00,63.9,59.6,30.28,North,10,0.0,236.6,86,0.00,,,0.00,VWS V14.01,2013-08-18 05:31:00,
2013-08-18 01:33:00,63.9,59.5,30.28,North,10,0.0,236.6,86,0.00,,,0.00,VWS V14.01,2013-08-18 05:33:00,
2013-08-18 01:34:00,63.9,59.4,30.28,North,10,0.0,236.6,85,0.00,,,0.00,VWS V14.01,2013-08-18 05:34:00,
2013-08-18 01:35:00,63.9,59.4,30.28,North,10,0.0,236.6,85,0.00,,,0.00,VWS V14.01,2013-08-18 05:35:00,
2013-08-18 01:36:00,63.9,59.4,30.28,North,10,0.0,236.6,85,0.00,,,0.00,VWS V14.01,2013-08-18 05:36:00,
2013-08-18 01:38:00,63.9,59.4,30.29,North,10,0.0,236.6,85,0.00,,,0.00,VWS V14.01,2013-08-18 05:38:00,
2013-08-18 01:41:00,63.9,59.5,30.29,North,10,0.0,236.6,86,0.00,,,0.00,VWS V14.01,2013-08-18 05:41:00,
2013-08-18 01:43:00,63.9,59.5,30.29,North,10,0.0,236.6,86,0.00,,,0.00,VWS V14.01,2013-08-18 05:43:00,
2013-08-18 01:44:00,63.8,59.4,30.29,North,10,0.0,236.6,86,0.00,,,0.00,VWS V14.01,2013-08-18 05:44:00,
2013-08-18 01:45:00,63.8,59.4,30.29,North,10,0.0,236.6,86,0.00,,,0.00,VWS V14.01,2013-08-18 05:45:00,
2013-08-18 01:47:00,63.8,59.4,30.29,North,10,0.0,236.6,86,0.00,,,0.00,VWS V14.01,2013-08-18 05:47:00,
2013-08-18 01:51:00,63.7,59.5,30.29,North,10,0.0,236.6,86,0.00,,,0.00,VWS V14.01,2013-08-18 05:51:00,
2013-08-18 01:58:00,63.6,59.4,30.29,North,10,0.0,236.6,86,0.00,,,0.00,VWS V14.01,2013-08-18 05:58:00,
2013-08-18 02:08:00,63.5,59.2,30.29,North,10,0.0,236.6,86,0.00,,,0.00,VWS V14.01,2013-08-18 06:08:00,
2013-08-18 02:22:00,63.9,59.6,30.28,North,10,0.0,236.6,86,0.00,,,0.00,VWS V14.01,2013-08-18 06:22:00,
2013-08-18 02:29:00,64.0,59.6,30.28,North,10,0.0,236.6,86,0.00,,,0.00,VWS V14.01,2013-08-18 06:29:00,
2013-08-18 02:34:00,63.9,59.4,30.29,North,10,0.0,236.6,85,0.00,,,0.00,VWS V14.01,2013-08-18 06:34:00,
2013-08-18 02:39:00,63.8,59.4,30.29,North,10,0.0,236.6,86,0.00,,,0.00,VWS V14.01,2013-08-18 06:39:00,
2013-08-18 02:44:00,63.8,59.4,30.29,North,10,0.0,236.6,86,0.00,,,0.00,VWS V14.01,2013-08-18 06:44:00,
2013-08-18 02:50:00,63.7,59.5,30.29,North,10,0.0,236.6,86,0.00,,,0.00,VWS V14.01,2013-08-18 06:50:00,
2013-08-18 02:56:00,63.7,59.4,30.29,North,10,0.0,236.6,86,0.00,,,0.00,VWS V14.01,2013-08-18 06:56:00,
2013-08-18 03:01:00,63.6,59.3,30.29,North,10,0.0,236.6,86,0.00,,,0.00,VWS V14.01,2013-08-18 07:01:00,
2013-08-18 03:06:00,63.5,59.2,30.29,North,10,0.0,236.6,86,0.00,,,0.00,VWS V14.01,2013-08-18 07:06:00,
2013-08-18 03:11:00,63.5,59.2,30.29,North,10,0.0,236.6,86,0.00,,,0.00,VWS V14.01,2013-08-18 07:11:00,
2013-08-18 03:17:00,63.5,59.2,30.29,North,10,0.0,236.6,86,0.00,,,0.00,VWS V14.01,2013-08-18 07:17:00,
2013-08-18 03:22:00,63.4,59.1,30.28,North,10,0.0,236.6,86,0.00,,,0.00,VWS V14.01,2013-08-18 07:22:00,
2013-08-18 03:27:00,63.4,59.2,30.29,North,10,0.0,236.6,86,0.00,,,0.00,VWS V14.01,2013-08-18 07:27:00,
2013-08-18 03:32:00,63.2,59.2,30.29,North,10,0.0,236.6,87,0.00,,,0.00,VWS V14.01,2013-08-18 07:32:00,
2013-08-18 03:38:00,63.1,59.2,30.28,North,10,0.0,236.6,87,0.00,,,0.00,VWS V14.01,2013-08-18 07:38:00,
2013-08-18 03:43:00,63.2,59.3,30.28,North,10,0.0,236.6,87,0.00,,,0.00,VWS V14.01,2013-08-18 07:43:00,
2013-08-18 03:48:00,63.1,59.4,30.29,North,10,0.0,236.6,88,0.00,,,0.00,VWS V14.01,2013-08-18 07:48:00,
2013-08-18 03:53:00,63.1,59.5,30.28,North,10,0.0,236.6,88,0.00,,,0.00,VWS V14.01,2013-08-18 07:53:00,
2013-08-18 03:58:00,63.1,59.6,30.28,North,10,0.0,236.6,88,0.00,,,0.00,VWS V14.01,2013-08-18 07:58:00,
2013-08-18 04:04:00,63.1,59.4,30.28,North,10,0.0,236.6,88,0.00,,,0.00,VWS V14.01,2013-08-18 08:04:00,
2013-08-18 04:09:00,63.1,59.3,30.29,North,10,0.0,236.6,87,0.00,,,0.00,VWS V14.01,2013-08-18 08:09:00,
2013-08-18 04:14:00,63.2,59.2,30.28,North,10,0.0,236.6,87,0.00,,,0.00,VWS V14.01,2013-08-18 08:14:00,
2013-08-18 04:19:00,63.3,59.1,30.28,North,10,0.0,236.6,86,0.00,,,0.00,VWS V14.01,2013-08-18 08:19:00,
2013-08-18 04:25:00,63.3,59.0,30.28,North,10,0.0,236.6,86,0.00,,,0.00,VWS V14.01,2013-08-18 08:25:00,
2013-08-18 04:30:00,63.5,59.0,30.28,North,10,0.0,236.6,85,0.00,,,0.00,VWS V14.01,2013-08-18 08:30:00,
2013-08-18 04:35:00,63.5,58.9,30.28,North,10,0.0,236.6,85,0.00,,,0.00,VWS V14.01,2013-08-18 08:35:00,
2013-08-18 04:40:00,63.6,59.2,30.28,North,10,0.0,236.6,85,0.00,,,0.00,VWS V14.01,2013-08-18 08:40:00,
2013-08-18 04:45:00,63.5,59.1,30.28,North,10,0.0,236.6,86,0.00,,,0.00,VWS V14.01,2013-08-18 08:45:00,
2013-08-18 04:51:00,63.5,59.2,30.28,North,10,0.0,236.6,86,0.00,,,0.00,VWS V14.01,2013-08-18 08:51:00,
2013-08-18 04:56:00,63.4,59.2,30.28,North,10,0.0,236.6,86,0.00,,,0.00,VWS V14.01,2013-08-18 08:56:00,
2013-08-18 05:02:00,63.1,59.4,30.28,North,10,0.0,236.6,88,0.00,,,0.00,VWS V14.01,2013-08-18 09:02:00,
2013-08-18 05:07:00,63.0,59.5,30.29,North,10,0.0,236.6,88,0.00,,,0.00,VWS V14.01,2013-08-18 09:07:00,
2013-08-18 05:12:00,62.9,59.3,30.28,North,10,0.0,236.6,88,0.00,,,0.00,VWS V14.01,2013-08-18 09:12:00,
2013-08-18 05:18:00,62.8,59.1,30.28,North,10,0.0,236.6,88,0.00,,,0.00,VWS V14.01,2013-08-18 09:18:00,
2013-08-18 05:23:00,63.0,59.2,30.28,North,10,0.0,236.6,87,0.00,,,0.00,VWS V14.01,2013-08-18 09:23:00,
2013-08-18 05:28:00,63.1,59.1,30.28,North,10,0.0,236.6,87,0.00,,,0.00,VWS V14.01,2013-08-18 09:28:00,
2013-08-18 05:33:00,63.0,59.0,30.28,North,10,0.0,236.6,87,0.00,,,0.00,VWS V14.01,2013-08-18 09:33:00,
2013-08-18 05:38:00,63.0,59.0,30.28,North,10,0.0,236.6,87,0.00,,,0.00,VWS V14.01,2013-08-18 09:38:00,
2013-08-18 05:44:00,62.9,59.0,30.28,North,10,0.0,236.6,87,0.00,,,0.00,VWS V14.01,2013-08-18 09:44:00,
2013-08-18 05:49:00,62.9,59.0,30.28,North,10,0.0,236.6,87,0.00,,,0.00,VWS V14.01,2013-08-18 09:49:00,
2013-08-18 05:54:00,62.9,59.1,30.28,North,10,0.0,236.6,87,0.00,,,0.00,VWS V14.01,2013-08-18 09:54:00,
2013-08-18 05:59:00,62.9,59.1,30.29,North,10,0.0,236.6,87,0.00,,,0.00,VWS V14.01,2013-08-18 09:59:00,
2013-08-18 06:04:00,62.8,59.1,30.29,North,10,0.0,236.6,88,0.00,,,0.00,VWS V14.01,2013-08-18 10:04:00,
2013-08-18 06:10:00,62.8,59.2,30.29,North,10,0.0,236.6,88,0.00,,,0.00,VWS V14.01,2013-08-18 10:10:00,
2013-08-18 06:15:00,62.8,59.2,30.29,North,10,0.0,236.6,88,0.00,,,0.00,VWS V14.01,2013-08-18 10:15:00,
2013-08-18 06:20:00,62.8,59.3,30.29,North,10,0.0,236.6,88,0.00,,,0.00,VWS V14.01,2013-08-18 10:20:00,
2013-08-18 06:25:00,62.8,59.3,30.28,North,10,0.0,236.6,88,0.00,,,0.00,VWS V14.01,2013-08-18 10:25:00,
2013-08-18 06:30:00,62.9,59.5,30.28,North,10,0.0,236.6,89,0.00,,,0.00,VWS V14.01,2013-08-18 10:30:00,
2013-08-18 06:36:00,62.9,59.5,30.29,North,10,0.0,236.6,89,0.00,,,0.00,VWS V14.01,2013-08-18 10:36:00,
2013-08-18 06:41:00,63.0,59.7,30.29,North,10,0.0,236.6,89,0.00,,,0.00,VWS V14.01,2013-08-18 10:41:00,
2013-08-18 06:46:00,62.9,59.5,30.29,North,10,0.0,236.6,89,0.00,,,0.00,VWS V14.01,2013-08-18 10:46:00,
2013-08-18 06:51:00,62.9,59.7,30.30,North,10,0.0,236.6,89,0.00,,,0.00,VWS V14.01,2013-08-18 10:51:00,
2013-08-18 06:56:00,63.0,59.8,30.30,North,10,0.0,236.6,89,0.00,,,0.00,VWS V14.01,2013-08-18 10:56:00,
2013-08-18 07:02:00,63.1,59.8,30.30,North,10,0.0,236.6,89,0.00,,,0.00,VWS V14.01,2013-08-18 11:02:00,
2013-08-18 07:07:00,63.3,60.1,30.30,North,10,0.0,236.6,89,0.00,,,0.00,VWS V14.01,2013-08-18 11:07:00,
2013-08-18 07:12:00,63.4,60.1,30.30,North,10,0.0,236.6,89,0.00,,,0.00,VWS V14.01,2013-08-18 11:12:00,
2013-08-18 07:17:00,63.5,60.2,30.30,North,10,0.0,236.6,89,0.00,,,0.00,VWS V14.01,2013-08-18 11:17:00,
2013-08-18 07:22:00,63.7,60.4,30.30,North,10,0.0,236.6,89,0.00,,,0.00,VWS V14.01,2013-08-18 11:22:00,
2013-08-18 07:28:00,63.9,60.6,30.30,North,10,0.0,236.6,89,0.00,,,0.00,VWS V14.01,2013-08-18 11:28:00,
2013-08-18 07:33:00,64.0,60.7,30.29,North,10,0.0,236.6,89,0.00,,,0.00,VWS V14.01,2013-08-18 11:33:00,
2013-08-18 07:38:00,64.1,60.8,30.30,North,10,0.0,236.6,89,0.00,,,0.00,VWS V14.01,2013-08-18 11:38:00,
2013-08-18 07:43:00,64.2,60.9,30.30,North,10,0.0,236.6,89,0.00,,,0.00,VWS V14.01,2013-08-18 11:43:00,
2013-08-18 07:48:00,64.4,61.1,30.30,North,10,0.0,236.6,89,0.00,,,0.00,VWS V14.01,2013-08-18 11:48:00,
2013-08-18 07:54:00,64.7,61.4,30.30,North,10,0.0,236.6,89,0.00,,,0.00,VWS V14.01,2013-08-18 11:54:00,
2013-08-18 07:59:00,65.0,61.7,30.30,North,10,0.0,236.6,89,0.00,,,0.00,VWS V14.01,2013-08-18 11:59:00,
2013-08-18 08:04:00,65.2,61.7,30.30,North,10,0.0,236.6,88,0.00,,,0.00,VWS V14.01,2013-08-18 12:04:00,
2013-08-18 08:09:00,65.6,62.0,30.30,North,10,0.0,236.6,88,0.00,,,0.00,VWS V14.01,2013-08-18 12:09:00,
2013-08-18 08:14:00,66.0,62.3,30.30,North,10,0.0,236.6,88,0.00,,,0.00,VWS V14.01,2013-08-18 12:14:00,
2013-08-18 08:20:00,66.2,62.2,30.30,North,10,0.0,236.6,87,0.00,,,0.00,VWS V14.01,2013-08-18 12:20:00,
2013-08-18 08:25:00,66.7,62.2,30.30,North,10,0.0,236.6,86,0.00,,,0.00,VWS V14.01,2013-08-18 12:25:00,
2013-08-18 08:30:00,67.0,62.2,30.30,North,10,0.0,236.6,84,0.00,,,0.00,VWS V14.01,2013-08-18 12:30:00,
2013-08-18 08:35:00,67.3,62.1,30.30,North,10,0.0,236.6,84,0.00,,,0.00,VWS V14.01,2013-08-18 12:35:00,
2013-08-18 08:40:00,67.8,62.5,30.30,North,10,0.0,236.6,83,0.00,,,0.00,VWS V14.01,2013-08-18 12:40:00,
2013-08-18 08:46:00,68.1,62.7,30.30,North,10,0.0,236.6,83,0.00,,,0.00,VWS V14.01,2013-08-18 12:46:00,
2013-08-18 08:51:00,68.4,62.9,30.30,North,10,0.0,236.6,83,0.00,,,0.00,VWS V14.01,2013-08-18 12:51:00,
2013-08-18 08:56:00,68.6,63.2,30.30,North,10,0.0,236.6,83,0.00,,,0.00,VWS V14.01,2013-08-18 12:56:00,
2013-08-18 09:01:00,69.0,63.3,30.29,North,10,0.0,236.6,82,0.00,,,0.00,VWS V14.01,2013-08-18 13:01:00,
2013-08-18 09:06:00,69.4,63.6,30.29,North,10,0.0,236.6,82,0.00,,,0.00,VWS V14.01,2013-08-18 13:06:00,
2013-08-18 09:12:00,69.6,63.7,30.29,North,10,0.0,236.6,81,0.00,,,0.00,VWS V14.01,2013-08-18 13:12:00,
2013-08-18 09:17:00,70.1,63.8,30.29,North,10,0.0,236.6,80,0.00,,,0.00,VWS V14.01,2013-08-18 13:17:00,
2013-08-18 09:22:00,70.5,64.0,30.29,North,10,0.0,236.6,80,0.00,,,0.00,VWS V14.01,2013-08-18 13:22:00,
2013-08-18 09:27:00,70.8,64.0,30.29,North,10,0.0,236.6,79,0.00,,,0.00,VWS V14.01,2013-08-18 13:27:00,
2013-08-18 09:32:00,71.0,63.9,30.29,North,10,0.0,236.6,78,0.00,,,0.00,VWS V14.01,2013-08-18 13:32:00,
2013-08-18 09:37:00,71.2,63.5,30.29,North,10,0.0,236.6,77,0.00,,,0.00,VWS V14.01,2013-08-18 13:37:00,
2013-08-18 09:43:00,71.6,63.8,30.29,North,10,0.0,236.6,76,0.00,,,0.00,VWS V14.01,2013-08-18 13:43:00,
2013-08-18 09:48:00,72.0,64.0,30.29,North,10,0.0,236.6,76,0.00,,,0.00,VWS V14.01,2013-08-18 13:48:00,
2013-08-18 09:53:00,72.4,64.3,30.29,North,10,0.0,236.6,76,0.00,,,0.00,VWS V14.01,2013-08-18 13:53:00,
2013-08-18 09:59:00,72.8,64.3,30.29,North,10,0.0,236.6,75,0.00,,,0.00,VWS V14.01,2013-08-18 13:59:00,
2013-08-18 10:04:00,73.2,64.6,30.29,North,10,0.0,236.6,74,0.00,,,0.00,VWS V14.01,2013-08-18 14:04:00,
2013-08-18 10:09:00,73.6,64.2,30.29,North,10,0.0,236.6,72,0.00,,,0.00,VWS V14.01,2013-08-18 14:09:00,
2013-08-18 10:15:00,73.8,63.7,30.29,North,10,0.0,236.6,71,0.00,,,0.00,VWS V14.01,2013-08-18 14:15:00,
2013-08-18 10:20:00,73.9,63.5,30.29,North,10,0.0,236.6,70,0.00,,,0.00,VWS V14.01,2013-08-18 14:20:00,
2013-08-18 10:26:00,74.2,63.3,30.29,North,10,0.0,236.6,69,0.00,,,0.00,VWS V14.01,2013-08-18 14:26:00,
2013-08-18 10:31:00,74.2,63.6,30.29,North,10,0.0,236.6,70,0.00,,,0.00,VWS V14.01,2013-08-18 14:31:00,
2013-08-18 10:37:00,74.2,63.7,30.29,North,10,0.0,236.6,70,0.00,,,0.00,VWS V14.01,2013-08-18 14:37:00,
2013-08-18 10:42:00,74.5,63.5,30.30,North,10,0.0,236.6,69,0.00,,,0.00,VWS V14.01,2013-08-18 14:42:00,
2013-08-18 10:47:00,74.7,63.8,30.30,North,10,0.0,236.6,69,0.00,,,0.00,VWS V14.01,2013-08-18 14:47:00,
2013-08-18 10:52:00,74.9,64.1,30.29,North,10,0.0,236.6,69,0.00,,,0.00,VWS V14.01,2013-08-18 14:52:00,
2013-08-18 10:58:00,75.3,64.1,30.29,North,10,0.0,236.6,68,0.00,,,0.00,VWS V14.01,2013-08-18 14:58:00,
2013-08-18 11:03:00,75.8,64.2,30.29,North,10,0.0,236.6,67,0.00,,,0.00,VWS V14.01,2013-08-18 15:03:00,
2013-08-18 11:08:00,76.1,64.0,30.29,North,10,0.0,236.6,66,0.00,,,0.00,VWS V14.01,2013-08-18 15:08:00,
2013-08-18 11:13:00,76.4,63.7,30.29,North,10,0.0,236.6,65,0.00,,,0.00,VWS V14.01,2013-08-18 15:13:00,
2013-08-18 11:18:00,76.8,63.2,30.28,North,10,0.0,236.6,63,0.00,,,0.00,VWS V14.01,2013-08-18 15:18:00,
2013-08-18 11:24:00,77.1,62.8,30.28,North,10,0.0,236.6,61,0.00,,,0.00,VWS V14.01,2013-08-18 15:24:00,
2013-08-18 11:29:00,77.7,62.6,30.28,North,10,0.0,236.6,60,0.00,,,0.00,VWS V14.01,2013-08-18 15:29:00,
2013-08-18 11:34:00,78.0,62.6,30.29,North,10,0.0,236.6,59,0.00,,,0.00,VWS V14.01,2013-08-18 15:34:00,
2013-08-18 11:39:00,78.3,62.8,30.29,North,10,0.0,236.6,59,0.00,,,0.00,VWS V14.01,2013-08-18 15:39:00,
2013-08-18 11:44:00,78.9,62.2,30.28,North,10,0.0,236.6,57,0.00,,,0.00,VWS V14.01,2013-08-18 15:44:00,
2013-08-18 11:49:00,79.2,63.1,30.28,North,10,0.0,236.6,58,0.00,,,0.00,VWS V14.01,2013-08-18 15:49:00,
2013-08-18 11:55:00,79.5,61.0,30.29,North,10,0.0,236.6,53,0.00,,,0.00,VWS V14.01,2013-08-18 15:55:00,
2013-08-18 12:00:00,79.7,61.4,30.28,North,10,0.0,236.6,54,0.00,,,0.00,VWS V14.01,2013-08-18 16:00:00,
2013-08-18 12:05:00,79.7,60.3,30.28,North,10,0.0,236.6,52,0.00,,,0.00,VWS V14.01,2013-08-18 16:05:00,
2013-08-18 12:10:00,79.2,60.3,30.28,North,10,0.0,236.6,52,0.00,,,0.00,VWS V14.01,2013-08-18 16:10:00,
2013-08-18 12:16:00,78.8,60.7,30.28,North,10,0.0,236.6,54,0.00,,,0.00,VWS V14.01,2013-08-18 16:16:00,
2013-08-18 12:21:00,78.3,60.9,30.28,North,10,0.0,236.6,55,0.00,,,0.00,VWS V14.01,2013-08-18 16:21:00,
2013-08-18 12:26:00,78.2,60.9,30.28,North,10,0.0,236.6,55,0.00,,,0.00,VWS V14.01,2013-08-18 16:26:00,
2013-08-18 12:31:00,78.2,60.9,30.28,North,10,0.0,236.6,55,0.00,,,0.00,VWS V14.01,2013-08-18 16:31:00,
2013-08-18 12:37:00,78.3,60.6,30.28,North,10,0.0,236.6,55,0.00,,,0.00,VWS V14.01,2013-08-18 16:37:00,
2013-08-18 12:45:00,78.0,61.7,30.28,North,10,0.0,236.6,57,0.00,,,0.00,VWS V14.01,2013-08-18 16:45:00,
2013-08-18 12:51:00,77.8,61.5,30.28,North,10,0.0,236.6,57,0.00,,,0.00,VWS V14.01,2013-08-18 16:51:00,
2013-08-18 12:56:00,77.7,60.9,30.28,North,10,0.0,236.6,56,0.00,,,0.00,VWS V14.01,2013-08-18 16:56:00,
2013-08-18 13:01:00,77.3,61.0,30.28,North,10,0.0,236.6,57,0.00,,,0.00,VWS V14.01,2013-08-18 17:01:00,
2013-08-18 13:06:00,77.0,61.5,30.28,North,10,0.0,236.6,59,0.00,,,0.00,VWS V14.01,2013-08-18 17:06:00,
2013-08-18 13:11:00,77.1,61.9,30.28,North,10,0.0,236.6,60,0.00,,,0.00,VWS V14.01,2013-08-18 17:11:00,
2013-08-18 13:17:00,77.0,62.3,30.28,North,10,0.0,236.6,60,0.00,,,0.00,VWS V14.01,2013-08-18 17:17:00,
2013-08-18 13:22:00,76.9,63.1,30.27,North,10,0.0,236.6,62,0.00,,,0.00,VWS V14.01,2013-08-18 17:22:00,
2013-08-18 13:27:00,77.2,64.7,30.27,North,10,0.0,236.6,65,0.00,,,0.00,VWS V14.01,2013-08-18 17:27:00,
2013-08-18 13:32:00,77.4,64.9,30.26,North,10,0.0,236.6,65,0.00,,,0.00,VWS V14.01,2013-08-18 17:32:00,
2013-08-18 13:37:00,77.8,63.9,30.26,North,10,0.0,236.6,62,0.00,,,0.00,VWS V14.01,2013-08-18 17:37:00,
2013-08-18 13:43:00,78.4,64.1,30.26,North,10,0.0,236.6,62,0.00,,,0.00,VWS V14.01,2013-08-18 17:43:00,
2013-08-18 13:48:00,79.0,64.1,30.26,North,10,0.0,236.6,60,0.00,,,0.00,VWS V14.01,2013-08-18 17:48:00,
2013-08-18 13:53:00,78.9,62.3,30.26,North,10,0.0,236.6,57,0.00,,,0.00,VWS V14.01,2013-08-18 17:53:00,
2013-08-18 13:58:00,78.9,63.1,30.26,North,10,0.0,236.6,58,0.00,,,0.00,VWS V14.01,2013-08-18 17:58:00,
2013-08-18 14:04:00,79.4,61.6,30.26,North,10,0.0,236.6,55,0.00,,,0.00,VWS V14.01,2013-08-18 18:04:00,
2013-08-18 14:09:00,80.0,62.3,30.26,North,10,0.0,236.6,55,0.00,,,0.00,VWS V14.01,2013-08-18 18:09:00,
2013-08-18 14:14:00,80.2,62.8,30.26,North,10,0.0,236.6,56,0.00,,,0.00,VWS V14.01,2013-08-18 18:14:00,
2013-08-18 14:19:00,80.3,62.8,30.25,North,10,0.0,236.6,55,0.00,,,0.00,VWS V14.01,2013-08-18 18:19:00,
2013-08-18 14:25:00,80.5,62.5,30.25,North,10,0.0,236.6,54,0.00,,,0.00,VWS V14.01,2013-08-18 18:25:00,
2013-08-18 14:30:00,80.3,61.3,30.25,North,10,0.0,236.6,52,0.00,,,0.00,VWS V14.01,2013-08-18 18:30:00,
2013-08-18 14:35:00,80.3,61.7,30.24,North,10,0.0,236.6,53,0.00,,,0.00,VWS V14.01,2013-08-18 18:35:00,
2013-08-18 14:40:00,80.5,61.7,30.24,North,10,0.0,236.6,53,0.00,,,0.00,VWS V14.01,2013-08-18 18:40:00,
2013-08-18 14:46:00,80.5,60.8,30.23,North,10,0.0,236.6,51,0.00,,,0.00,VWS V14.01,2013-08-18 18:46:00,
2013-08-18 14:51:00,80.6,60.5,30.22,North,10,0.0,236.6,50,0.00,,,0.00,VWS V14.01,2013-08-18 18:51:00,
2013-08-18 14:56:00,80.9,60.2,30.22,North,10,0.0,236.6,49,0.00,,,0.00,VWS V14.01,2013-08-18 18:56:00,
2013-08-18 15:01:00,80.9,60.1,30.22,North,10,0.0,236.6,49,0.00,,,0.00,VWS V14.01,2013-08-18 19:01:00,
2013-08-18 15:06:00,81.1,60.5,30.22,North,10,0.0,236.6,50,0.00,,,0.00,VWS V14.01,2013-08-18 19:06:00,
2013-08-18 15:11:00,80.5,59.4,30.22,North,10,0.0,236.6,49,0.00,,,0.00,VWS V14.01,2013-08-18 19:11:00,
2013-08-18 15:17:00,80.4,59.8,30.22,North,10,0.0,236.6,50,0.00,,,0.00,VWS V14.01,2013-08-18 19:17:00,
2013-08-18 15:22:00,79.9,60.2,30.22,North,10,0.0,236.6,51,0.00,,,0.00,VWS V14.01,2013-08-18 19:22:00,
2013-08-18 15:27:00,79.7,61.1,30.22,North,10,0.0,236.6,53,0.00,,,0.00,VWS V14.01,2013-08-18 19:27:00,
2013-08-18 15:32:00,79.1,61.2,30.21,North,10,0.0,236.6,54,0.00,,,0.00,VWS V14.01,2013-08-18 19:32:00,
2013-08-18 15:37:00,79.0,62.0,30.20,North,10,0.0,236.6,56,0.00,,,0.00,VWS V14.01,2013-08-18 19:37:00,
2013-08-18 15:43:00,79.0,63.1,30.20,North,10,0.0,236.6,58,0.00,,,0.00,VWS V14.01,2013-08-18 19:43:00,
2013-08-18 15:48:00,78.9,63.7,30.20,North,10,0.0,236.6,60,0.00,,,0.00,VWS V14.01,2013-08-18 19:48:00,
2013-08-18 15:54:00,78.8,63.2,30.20,North,10,0.0,236.6,59,0.00,,,0.00,VWS V14.01,2013-08-18 19:54:00,
2013-08-18 16:02:00,78.5,61.8,30.20,North,10,0.0,236.6,57,0.00,,,0.00,VWS V14.01,2013-08-18 20:02:00,
2013-08-18 16:07:00,78.1,61.8,30.20,North,10,0.0,236.6,57,0.00,,,0.00,VWS V14.01,2013-08-18 20:07:00,
2013-08-18 16:13:00,77.8,61.7,30.20,North,10,0.0,236.6,58,0.00,,,0.00,VWS V14.01,2013-08-18 20:13:00,
2013-08-18 16:19:00,77.5,62.0,30.20,North,10,0.0,236.6,59,0.00,,,0.00,VWS V14.01,2013-08-18 20:19:00,
2013-08-18 16:24:00,77.4,63.5,30.20,North,10,0.0,236.6,62,0.00,,,0.00,VWS V14.01,2013-08-18 20:24:00,
2013-08-18 16:30:00,77.4,64.2,30.19,North,10,0.0,236.6,64,0.00,,,0.00,VWS V14.01,2013-08-18 20:30:00,
2013-08-18 16:35:00,77.3,64.1,30.19,North,10,0.0,236.6,64,0.00,,,0.00,VWS V14.01,2013-08-18 20:35:00,
2013-08-18 16:40:00,77.4,64.9,30.19,North,10,0.0,236.6,65,0.00,,,0.00,VWS V14.01,2013-08-18 20:40:00,
2013-08-18 16:46:00,77.3,65.5,30.19,North,10,0.0,236.6,67,0.00,,,0.00,VWS V14.01,2013-08-18 20:46:00,
2013-08-18 16:51:00,77.4,65.6,30.19,North,10,0.0,236.6,67,0.00,,,0.00,VWS V14.01,2013-08-18 20:51:00,
2013-08-18 16:57:00,77.1,65.0,30.19,North,10,0.0,236.6,66,0.00,,,0.00,VWS V14.01,2013-08-18 20:57:00,
2013-08-18 17:02:00,77.3,65.4,30.19,North,10,0.0,236.6,67,0.00,,,0.00,VWS V14.01,2013-08-18 21:02:00,
2013-08-18 17:08:00,77.3,65.2,30.19,North,10,0.0,236.6,66,0.00,,,0.00,VWS V14.01,2013-08-18 21:08:00,
2013-08-18 17:13:00,77.1,65.5,30.19,North,10,0.0,236.6,67,0.00,,,0.00,VWS V14.01,2013-08-18 21:13:00,
2013-08-18 17:19:00,77.2,65.2,30.19,North,10,0.0,236.6,66,0.00,,,0.00,VWS V14.01,2013-08-18 21:19:00,
2013-08-18 17:25:00,77.1,64.4,30.19,North,10,0.0,236.6,65,0.00,,,0.00,VWS V14.01,2013-08-18 21:25:00,
2013-08-18 17:30:00,76.7,64.3,30.19,North,10,0.0,236.6,66,0.00,,,0.00,VWS V14.01,2013-08-18 21:30:00,
2013-08-18 17:36:00,76.5,63.6,30.19,North,10,0.0,236.6,64,0.00,,,0.00,VWS V14.01,2013-08-18 21:36:00,
2013-08-18 17:42:00,76.3,63.5,30.19,North,10,0.0,236.6,65,0.00,,,0.00,VWS V14.01,2013-08-18 21:42:00,
2013-08-18 17:48:00,76.1,63.5,30.19,North,10,0.0,236.6,65,0.00,,,0.00,VWS V14.01,2013-08-18 21:48:00,
2013-08-18 17:53:00,75.8,63.3,30.19,North,10,0.0,236.6,65,0.00,,,0.00,VWS V14.01,2013-08-18 21:53:00,
2013-08-18 17:58:00,75.5,63.6,30.19,North,10,0.0,236.6,67,0.00,,,0.00,VWS V14.01,2013-08-18 21:58:00,
2013-08-18 18:04:00,75.4,63.4,30.19,North,10,0.0,236.6,66,0.00,,,0.00,VWS V14.01,2013-08-18 22:04:00,
2013-08-18 18:09:00,75.3,62.9,30.18,North,10,0.0,236.6,65,0.00,,,0.00,VWS V14.01,2013-08-18 22:09:00,
2013-08-18 18:15:00,75.2,62.6,30.18,North,10,0.0,236.6,65,0.00,,,0.00,VWS V14.01,2013-08-18 22:15:00,
2013-08-18 18:20:00,74.9,63.0,30.18,North,10,0.0,236.6,67,0.00,,,0.00,VWS V14.01,2013-08-18 22:20:00,
2013-08-18 18:25:00,74.6,63.2,30.18,North,10,0.0,236.6,68,0.00,,,0.00,VWS V14.01,2013-08-18 22:25:00,
2013-08-18 18:31:00,74.4,63.2,30.18,North,10,0.0,236.6,68,0.00,,,0.00,VWS V14.01,2013-08-18 22:31:00,
2013-08-18 18:36:00,74.3,63.0,30.18,North,10,0.0,236.6,68,0.00,,,0.00,VWS V14.01,2013-08-18 22:36:00,
2013-08-18 18:41:00,74.2,63.0,30.18,North,10,0.0,236.6,68,0.00,,,0.00,VWS V14.01,2013-08-18 22:41:00,
2013-08-18 18:47:00,74.1,63.2,30.18,North,10,0.0,236.6,69,0.00,,,0.00,VWS V14.01,2013-08-18 22:47:00,
2013-08-18 18:52:00,73.9,63.1,30.18,North,10,0.0,236.6,69,0.00,,,0.00,VWS V14.01,2013-08-18 22:52:00,
2013-08-18 18:57:00,73.8,63.4,30.18,North,10,0.0,236.6,70,0.00,,,0.00,VWS V14.01,2013-08-18 22:57:00,
2013-08-18 19:03:00,73.8,63.7,30.18,North,10,0.0,236.6,71,0.00,,,0.00,VWS V14.01,2013-08-18 23:03:00,
2013-08-18 19:10:00,73.7,63.8,30.18,North,10,0.0,236.6,71,0.00,,,0.00,VWS V14.01,2013-08-18 23:10:00,
2013-08-18 19:15:00,73.7,63.9,30.18,North,10,0.0,236.6,71,0.00,,,0.00,VWS V14.01,2013-08-18 23:15:00,
2013-08-18 19:21:00,73.6,63.8,30.18,North,10,0.0,236.6,71,0.00,,,0.00,VWS V14.01,2013-08-18 23:21:00,
2013-08-18 19:26:00,73.3,63.6,30.18,North,10,0.0,236.6,72,0.00,,,0.00,VWS V14.01,2013-08-18 23:26:00,
2013-08-18 19:32:00,73.1,63.6,30.18,North,10,0.0,236.6,72,0.00,,,0.00,VWS V14.01,2013-08-18 23:32:00,
2013-08-18 19:38:00,72.9,63.6,30.18,North,10,0.0,236.6,73,0.00,,,0.00,VWS V14.01,2013-08-18 23:38:00,
2013-08-18 19:44:00,72.7,63.4,30.18,North,10,0.0,236.6,73,0.00,,,0.00,VWS V14.01,2013-08-18 23:44:00,
2013-08-18 19:50:00,72.4,63.5,30.18,North,10,0.0,236.6,74,0.00,,,0.00,VWS V14.01,2013-08-18 23:50:00,
2013-08-18 19:56:00,72.1,63.5,30.18,North,10,0.0,236.6,74,0.00,,,0.00,VWS V14.01,2013-08-18 23:56:00,
2013-08-18 20:02:00,71.8,63.4,30.18,North,10,0.0,236.6,75,0.00,,,0.00,VWS V14.01,2013-08-19 00:02:00,
2013-08-18 20:07:00,71.6,63.4,30.18,North,10,0.0,236.6,75,0.00,,,0.00,VWS V14.01,2013-08-19 00:07:00,
2013-08-18 20:13:00,71.4,63.5,30.18,North,10,0.0,236.6,76,0.00,,,0.00,VWS V14.01,2013-08-19 00:13:00,
2013-08-18 20:19:00,71.3,63.6,30.18,North,10,0.0,236.6,77,0.00,,,0.00,VWS V14.01,2013-08-19 00:19:00,
2013-08-18 20:25:00,71.1,63.5,30.18,North,10,0.0,236.6,77,0.00,,,0.00,VWS V14.01,2013-08-19 00:25:00,
2013-08-18 20:31:00,71.0,63.5,30.18,North,10,0.0,236.6,77,0.00,,,0.00,VWS V14.01,2013-08-19 00:31:00,
2013-08-18 20:36:00,70.7,63.5,30.18,North,10,0.0,236.6,78,0.00,,,0.00,VWS V14.01,2013-08-19 00:36:00,
2013-08-18 20:42:00,70.5,63.6,30.18,North,10,0.0,236.6,79,0.00,,,0.00,VWS V14.01,2013-08-19 00:42:00,
2013-08-18 20:48:00,70.5,63.8,30.19,North,10,0.0,236.6,79,0.00,,,0.00,VWS V14.01,2013-08-19 00:48:00,
2013-08-18 20:53:00,70.4,63.9,30.18,North,10,0.0,236.6,80,0.00,,,0.00,VWS V14.01,2013-08-19 00:53:00,
2013-08-18 20:59:00,70.2,63.9,30.18,North,10,0.0,236.6,80,0.00,,,0.00,VWS V14.01,2013-08-19 00:59:00,
2013-08-18 21:04:00,70.1,63.8,30.18,North,10,0.0,236.6,80,0.00,,,0.00,VWS V14.01,2013-08-19 01:04:00,
2013-08-18 21:10:00,69.8,63.8,30.18,North,10,0.0,236.6,81,0.00,,,0.00,VWS V14.01,2013-08-19 01:10:00,
2013-08-18 21:16:00,69.6,63.5,30.18,North,10,0.0,236.6,81,0.00,,,0.00,VWS V14.01,2013-08-19 01:16:00,
2013-08-18 21:21:00,69.4,63.1,30.18,North,10,0.0,236.6,80,0.00,,,0.00,VWS V14.01,2013-08-19 01:21:00,
2013-08-18 21:27:00,69.4,62.8,30.18,North,10,0.0,236.6,80,0.00,,,0.00,VWS V14.01,2013-08-19 01:27:00,
2013-08-18 21:33:00,69.3,62.4,30.18,North,10,0.0,236.6,79,0.00,,,0.00,VWS V14.01,2013-08-19 01:33:00,
2013-08-18 21:38:00,69.1,62.2,30.18,North,10,0.0,236.6,79,0.00,,,0.00,VWS V14.01,2013-08-19 01:38:00,
2013-08-18 21:44:00,68.9,61.6,30.18,North,10,0.0,236.6,78,0.00,,,0.00,VWS V14.01,2013-08-19 01:44:00,
2013-08-18 21:49:00,68.8,61.4,30.18,North,10,0.0,236.6,77,0.00,,,0.00,VWS V14.01,2013-08-19 01:49:00,
2013-08-18 21:55:00,68.8,61.2,30.18,North,10,0.0,236.6,77,0.00,,,0.00,VWS V14.01,2013-08-19 01:55:00,
2013-08-18 22:00:00,68.6,60.9,30.18,North,10,0.0,236.6,76,0.00,,,0.00,VWS V14.01,2013-08-19 02:00:00,
2013-08-18 22:06:00,68.4,60.9,30.18,North,10,0.0,236.6,77,0.00,,,0.00,VWS V14.01,2013-08-19 02:06:00,
2013-08-18 22:11:00,68.3,61.7,30.18,North,10,0.0,236.6,79,0.00,,,0.00,VWS V14.01,2013-08-19 02:11:00,
2013-08-18 22:17:00,68.2,62.2,30.18,North,10,0.0,236.6,81,0.00,,,0.00,VWS V14.01,2013-08-19 02:17:00,
2013-08-18 22:22:00,68.1,62.6,30.18,North,10,0.0,236.6,82,0.00,,,0.00,VWS V14.01,2013-08-19 02:22:00,
2013-08-18 22:27:00,68.0,62.8,30.18,North,10,0.0,236.6,83,0.00,,,0.00,VWS V14.01,2013-08-19 02:27:00,
2013-08-18 22:32:00,67.8,62.8,30.18,North,10,0.0,236.6,84,0.00,,,0.00,VWS V14.01,2013-08-19 02:32:00,
2013-08-18 22:38:00,67.8,63.0,30.18,North,10,0.0,236.6,85,0.00,,,0.00,VWS V14.01,2013-08-19 02:38:00,
2013-08-18 22:43:00,67.4,62.8,30.18,North,10,0.0,236.6,85,0.00,,,0.00,VWS V14.01,2013-08-19 02:43:00,
2013-08-18 22:48:00,67.3,62.6,30.18,North,10,0.0,236.6,85,0.00,,,0.00,VWS V14.01,2013-08-19 02:48:00,
2013-08-18 22:54:00,67.2,62.6,30.18,North,10,0.0,236.6,85,0.00,,,0.00,VWS V14.01,2013-08-19 02:54:00,
2013-08-18 22:59:00,67.1,62.7,30.18,North,10,0.0,236.6,86,0.00,,,0.00,VWS V14.01,2013-08-19 02:59:00,
2013-08-18 23:05:00,67.0,62.8,30.18,North,10,0.0,236.6,86,0.00,,,0.00,VWS V14.01,2013-08-19 03:05:00,
2013-08-18 23:10:00,66.8,62.6,30.18,North,10,0.0,236.6,86,0.00,,,0.00,VWS V14.01,2013-08-19 03:10:00,
2013-08-18 23:16:00,66.7,62.5,30.18,North,10,0.0,236.6,86,0.00,,,0.00,VWS V14.01,2013-08-19 03:16:00,
2013-08-18 23:22:00,66.4,62.4,30.17,North,10,0.0,236.6,87,0.00,,,0.00,VWS V14.01,2013-08-19 03:22:00,
2013-08-18 23:27:00,66.3,62.3,30.17,North,10,0.0,236.6,87,0.00,,,0.00,VWS V14.01,2013-08-19 03:27:00,
2013-08-18 23:33:00,66.2,62.2,30.17,North,10,0.0,236.6,87,0.00,,,0.00,VWS V14.01,2013-08-19 03:33:00,
2013-08-18 23:38:00,66.0,62.1,30.17,North,10,0.0,236.6,87,0.00,,,0.00,VWS V14.01,2013-08-19 03:38:00,
2013-08-18 23:43:00,65.8,62.1,30.17,North,10,0.0,236.6,88,0.00,,,0.00,VWS V14.01,2013-08-19 03:43:00,
2013-08-18 23:48:00,65.6,61.9,30.17,North,10,0.0,236.6,88,0.00,,,0.00,VWS V14.01,2013-08-19 03:48:00,
2013-08-18 23:53:00,65.5,61.9,30.17,North,10,0.0,236.6,88,0.00,,,0.00,VWS V14.01,2013-08-19 03:53:00,
2013-08-18 23:59:00,65.4,61.9,30.17,North,10,0.0,236.6,88,0.00,,,0.00,VWS V14.01,2013-08-19 03:59:00,